Time;durP1;ratioP1;P1;durP2;ratioP2;P2;SDS_P1;SDS_P2;PMS_P1;PMS_P2;Temp;Humidity;BMP_temperature;BMP_pressure;BME280_temperature;BME280_humidity;BME280_pressure;Samples;Min_cycle;Max_cycle;Signal;HPM_P1;HPM_P2
2022/12/01 00:01:12;;;;;;;12.00;7.68;;;;;;;6.00;92.23;103192.00;5105290;28;20107;-72
2022/12/01 00:03:38;;;;;;;9.80;7.13;;;;;;;6.03;92.13;103183.75;5113946;28;20034;-72
2022/12/01 00:06:16;;;;;;;12.02;7.93;;;;;;;5.95;92.19;103170.94;5100144;28;20057;-72
2022/12/01 00:10:24;;;;;;;10.18;7.60;;;;;;;5.98;91.98;103176.06;5109679;28;20066;-72
2022/12/01 00:11:32;;;;;;;11.98;7.65;;;;;;;6.06;92.07;103183.50;5111334;28;20090;-71
2022/12/01 00:13:57;;;;;;;9.90;6.93;;;;;;;6.07;91.97;103182.56;5083722;28;20376;-71
2022/12/01 00:16:23;;;;;;;11.63;7.75;;;;;;;6.07;92.52;103186.09;5095396;28;20088;-72
2022/12/01 00:18:50;;;;;;;8.95;6.80;;;;;;;5.92;92.12;103160.41;5106225;28;20024;-72
2022/12/01 00:21:20;;;;;;;11.43;7.45;;;;;;;5.97;91.97;103152.97;5105895;28;20088;-72
2022/12/01 00:23:48;;;;;;;14.38;7.95;;;;;;;5.89;92.20;103155.28;5113204;28;20031;-72
2022/12/01 00:26:14;;;;;;;10.23;7.28;;;;;;;5.94;92.48;103174.56;5101476;28;20028;-72
2022/12/01 00:28:40;;;;;;;9.95;7.20;;;;;;;5.99;92.12;103179.56;5111166;28;20056;-72
2022/12/01 00:31:09;;;;;;;9.88;7.25;;;;;;;5.98;92.44;103173.38;5107504;28;20471;-72
2022/12/01 00:33:34;;;;;;;13.60;7.88;;;;;;;5.94;92.30;103179.91;5103745;28;20135;-72
2022/12/01 00:36:00;;;;;;;13.02;8.73;;;;;;;5.86;92.83;103174.22;5114620;28;20545;-72
2022/12/01 00:38:26;;;;;;;13.18;8.43;;;;;;;5.69;92.93;103164.75;5102733;28;20080;-71
2022/12/01 00:40:51;;;;;;;15.05;8.68;;;;;;;5.56;94.46;103170.13;5109050;28;20066;-72
2022/12/01 00:43:17;;;;;;;13.25;8.27;;;;;;;5.65;93.77;103164.09;5108617;28;20063;-72
2022/12/01 00:45:42;;;;;;;14.07;9.02;;;;;;;5.63;94.62;103174.06;5083894;28;20028;-72
2022/12/01 00:48:08;;;;;;;11.15;8.55;;;;;;;5.63;94.94;103176.72;5112820;28;20055;-72
2022/12/01 00:50:33;;;;;;;13.25;8.50;;;;;;;5.58;94.61;103162.84;5102404;28;20114;-72
2022/12/01 00:52:58;;;;;;;11.25;7.85;;;;;;;5.64;95.06;103178.44;5106865;28;20032;-72
2022/12/01 00:55:24;;;;;;;14.75;8.95;;;;;;;5.63;94.59;103171.41;5110773;28;20047;-72
2022/12/01 00:57:49;;;;;;;14.35;8.50;;;;;;;5.51;95.35;103158.91;5082652;28;20158;-72
2022/12/01 01:00:16;;;;;;;13.85;8.65;;;;;;;5.61;95.00;103181.31;5113212;28;20028;-72
2022/12/01 01:02:41;;;;;;;13.95;9.30;;;;;;;5.66;95.20;103172.97;5103775;28;20198;-72
2022/12/01 01:05:07;;;;;;;12.32;8.40;;;;;;;5.63;94.87;103176.72;5107272;28;20051;-72
2022/12/01 01:07:32;;;;;;;12.70;8.98;;;;;;;5.61;95.24;103178.66;5109677;28;20536;-72
2022/12/01 01:09:58;;;;;;;12.55;8.82;;;;;;;5.42;95.21;103151.53;5099076;28;20030;-71
2022/12/01 01:12:23;;;;;;;14.52;9.13;;;;;;;5.57;95.13;103190.53;5111359;28;20020;-72
2022/12/01 01:14:49;;;;;;;12.15;8.43;;;;;;;5.50;95.11;103183.91;5105093;28;20051;-72
2022/12/01 01:17:14;;;;;;;11.93;8.60;;;;;;;5.47;95.54;103186.78;5087390;28;20119;-72
2022/12/01 01:19:39;;;;;;;12.48;8.27;;;;;;;5.36;96.60;103187.53;5118028;28;20058;-72
2022/12/01 01:22:05;;;;;;;13.27;8.40;;;;;;;5.36;97.16;103192.00;5086841;28;20039;-71
2022/12/01 01:24:30;;;;;;;14.32;9.07;;;;;;;5.44;96.59;103191.50;5111323;28;20032;-71
2022/12/01 01:26:59;;;;;;;14.07;8.90;;;;;;;5.21;96.44;103155.72;5088454;28;20036;-72
2022/12/01 01:29:24;;;;;;;13.50;9.10;;;;;;;5.30;97.17;103187.13;5103930;28;20050;-71
2022/12/01 01:31:50;;;;;;;14.65;8.40;;;;;;;5.34;96.56;103186.78;5112390;28;20028;-72
2022/12/01 01:34:15;;;;;;;12.23;8.80;;;;;;;5.33;96.33;103186.88;5100790;28;20044;-72
2022/12/01 01:36:41;;;;;;;12.50;8.35;;;;;;;5.32;96.71;103193.19;5092502;28;20116;-72
2022/12/01 01:39:06;;;;;;;12.05;7.82;;;;;;;5.27;96.89;103187.31;5106438;28;20028;-74
2022/12/01 01:41:32;;;;;;;11.52;7.75;;;;;;;5.31;96.91;103181.66;5103203;28;20124;-71
2022/12/01 01:44:36;;;;;;;14.10;8.02;;;;;;;5.24;97.00;103192.88;5114403;28;20031;-71
2022/12/01 01:47:01;;;;;;;10.65;7.47;;;;;;;5.24;96.75;103190.19;5105702;28;20019;-71
2022/12/01 01:49:26;;;;;;;10.93;7.85;;;;;;;5.19;97.07;103186.00;5085837;28;20028;-71
2022/12/01 01:51:52;;;;;;;11.82;7.13;;;;;;;5.11;96.74;103177.69;5113564;28;20081;-71
2022/12/01 01:54:34;;;;;;;9.68;7.13;;;;;;;5.08;96.99;103188.56;5100463;28;20026;-71
2022/12/01 01:57:02;;;;;;;10.35;7.40;;;;;;;5.12;96.76;103186.53;5108052;28;20031;-71
2022/12/01 01:59:33;;;;;;;10.98;7.07;;;;;;;5.10;96.66;103181.31;5111700;28;20077;-71
2022/12/01 02:02:05;;;;;;;8.65;6.43;;;;;;;4.82;96.15;103139.66;5102297;28;20032;-72
2022/12/01 02:04:52;;;;;;;9.15;6.82;;;;;;;5.11;96.06;103184.84;5114468;28;20402;-70
2022/12/01 02:07:21;;;;;;;10.57;6.85;;;;;;;5.11;95.86;103188.38;5110380;28;20084;-71
2022/12/01 02:09:46;;;;;;;9.60;6.97;;;;;;;5.11;95.85;103183.03;5104724;28;20040;-73
2022/12/01 02:12:31;;;;;;;9.60;6.70;;;;;;;4.94;95.54;103157.50;5098696;28;20050;-71
2022/12/01 02:15:18;;;;;;;11.55;7.20;;;;;;;5.09;95.71;103187.59;5110134;28;20019;-71
2022/12/01 02:18:11;;;;;;;8.95;6.93;;;;;;;5.07;95.36;103184.19;5105166;28;20031;-71
2022/12/01 02:21:13;;;;;;;10.45;7.03;;;;;;;5.06;95.77;103182.47;5092170;28;20023;-71
2022/12/01 02:24:07;;;;;;;11.77;7.22;;;;;;;4.98;95.58;103178.63;5104322;28;20062;-71
2022/12/01 02:27:21;;;;;;;11.65;7.63;;;;;;;5.00;95.64;103182.91;5091050;28;20047;-71
2022/12/01 02:30:08;;;;;;;11.98;6.72;;;;;;;5.03;95.29;103181.81;5064385;28;20059;-71
2022/12/01 02:32:44;;;;;;;11.75;7.38;;;;;;;4.97;95.74;103177.78;5068375;28;20427;-71
2022/12/01 02:35:13;;;;;;;9.27;6.60;;;;;;;4.92;95.07;103185.22;5069887;28;20032;-71
2022/12/01 02:37:45;;;;;;;9.48;7.10;;;;;;;4.77;95.53;103168.47;5075637;28;20032;-71
2022/12/01 02:40:18;;;;;;;11.38;6.80;;;;;;;4.84;95.87;103177.75;5080708;28;20053;-71
2022/12/01 02:43:04;;;;;;;11.25;7.13;;;;;;;4.85;95.81;103167.94;5090275;28;20086;-71
2022/12/01 02:45:46;;;;;;;9.45;6.97;;;;;;;4.84;95.69;103169.75;5090225;28;20071;-71
2022/12/01 02:48:19;;;;;;;10.45;6.57;;;;;;;4.77;95.51;103154.25;5080613;28;20143;-71
2022/12/01 02:50:45;;;;;;;8.48;6.45;;;;;;;4.62;95.38;103137.47;5073231;28;20126;-71
2022/12/01 02:53:17;;;;;;;9.10;6.00;;;;;;;4.83;95.35;103175.16;5087793;28;20051;-71
2022/12/01 02:55:54;;;;;;;7.95;5.80;;;;;;;4.74;95.98;103174.00;5097089;28;20118;-71
2022/12/01 02:58:20;;;;;;;9.75;5.78;;;;;;;4.76;96.06;103176.53;5064008;28;20198;-72
2022/12/01 03:01:16;;;;;;;9.68;6.30;;;;;;;4.71;96.52;103180.38;5100977;28;20067;-71
2022/12/01 03:04:05;;;;;;;9.50;5.85;;;;;;;4.67;96.83;103181.56;5106682;28;20043;-72
2022/12/01 03:06:40;;;;;;;8.55;6.32;;;;;;;4.59;97.71;103177.69;5088532;28;20023;-71
2022/12/01 03:09:17;;;;;;;;;;;;;;;4.67;97.77;103178.03;5108150;28;20031;-71
2022/12/01 03:12:08;;;;;;;8.55;5.65;;;;;;;4.52;97.60;103149.72;5113814;28;19915;-72
2022/12/01 03:15:03;;;;;;;8.73;6.10;;;;;;;4.66;97.80;103171.81;5078727;28;20111;-71
2022/12/01 03:17:37;;;;;;;8.05;5.53;;;;;;;4.70;97.82;103175.13;5072219;28;20093;-71
2022/12/01 03:20:15;;;;;;;7.88;5.88;;;;;;;4.68;98.71;103171.72;5132159;28;20050;-71
2022/12/01 03:22:49;;;;;;;8.05;6.28;;;;;;;4.50;98.83;103136.47;5112822;28;20027;-72
2022/12/01 03:25:16;;;;;;;9.32;6.18;;;;;;;4.77;98.08;103168.47;5110246;28;20558;-72
2022/12/01 03:27:47;;;;;;;9.15;5.70;;;;;;;4.79;98.42;103163.84;5105183;28;20040;-71
2022/12/01 03:30:13;;;;;;;11.48;5.55;;;;;;;4.80;98.48;103159.38;5115687;28;20027;-72
2022/12/01 03:32:46;;;;;;;8.02;6.00;;;;;;;4.82;98.47;103170.81;5103834;28;20478;-71
2022/12/01 03:35:43;;;;;;;8.32;6.32;;;;;;;4.81;98.33;103169.94;5107347;28;20078;-72
2022/12/01 03:38:23;;;;;;;8.27;5.72;;;;;;;4.63;98.63;103136.50;5075795;28;20055;-72
2022/12/01 03:40:52;;;;;;;9.63;6.18;;;;;;;4.76;99.05;103157.88;5075845;28;20040;-72
2022/12/01 03:43:26;;;;;;;9.05;6.10;;;;;;;4.85;98.71;103157.25;5076416;28;20134;-72
2022/12/01 03:46:18;;;;;;;7.97;6.23;;;;;;;4.80;98.43;103170.03;5075709;28;20032;-71
2022/12/01 03:48:44;;;;;;;8.20;5.95;;;;;;;4.81;98.89;103171.78;5045885;28;20055;-72
2022/12/01 03:51:28;;;;;;;8.32;6.38;;;;;;;4.82;98.44;103168.13;5058991;28;20060;-72
2022/12/01 03:54:01;;;;;;;10.60;6.50;;;;;;;4.90;98.17;103163.13;5059276;28;20111;-71
2022/12/01 03:56:32;;;;;;;10.23;6.53;;;;;;;4.91;97.96;103162.19;5059172;28;20032;-72
2022/12/01 03:59:01;;;;;;;10.38;6.75;;;;;;;4.74;97.57;103141.13;5058461;28;20045;-72
2022/12/01 04:01:32;;;;;;;9.70;6.55;;;;;;;4.81;97.35;103150.44;5076015;28;20040;-72
2022/12/01 04:04:11;;;;;;;10.23;7.50;;;;;;;4.62;96.73;103125.00;5075044;28;20115;-72
2022/12/01 04:06:37;;;;;;;9.63;6.75;;;;;;;4.87;96.91;103160.69;5075986;28;20062;-72
2022/12/01 04:09:09;;;;;;;11.10;7.40;;;;;;;4.94;96.76;103162.84;5074523;28;20032;-71
2022/12/01 04:14:18;;;;;;;9.95;7.43;;;;;;;4.88;96.75;103165.06;5100778;28;20034;-72
2022/12/01 04:16:43;;;;;;;9.05;7.00;;;;;;;4.82;97.37;103171.66;5111001;28;20024;-72
2022/12/01 04:19:10;;;;;;;10.80;7.03;;;;;;;4.84;96.89;103168.91;5106467;28;20054;-72
2022/12/01 04:21:36;;;;;;;10.57;7.03;;;;;;;4.84;97.07;103163.56;5104039;27;20074;-72
2022/12/01 04:24:02;;;;;;;10.88;7.15;;;;;;;4.85;96.95;103162.59;5114311;28;20027;-71
2022/12/01 04:26:31;;;;;;;10.52;6.82;;;;;;;4.89;96.73;103166.75;5083896;28;20047;-72
2022/12/01 04:28:58;;;;;;;11.65;6.90;;;;;;;4.90;96.41;103171.13;5107675;28;20062;-72
2022/12/01 04:31:23;;;;;;;10.43;7.10;;;;;;;4.78;96.99;103162.16;5091347;28;20036;-72
2022/12/01 04:33:48;;;;;;;10.50;7.90;;;;;;;4.80;97.37;103170.03;5100074;28;20032;-72
2022/12/01 04:36:14;;;;;;;13.68;7.80;;;;;;;4.72;97.57;103168.75;5114081;28;20033;-71
2022/12/01 04:38:39;;;;;;;11.13;7.32;;;;;;;4.63;97.92;103169.34;5085768;28;20035;-71
2022/12/01 04:41:14;;;;;;;11.45;8.00;;;;;;;4.64;98.44;103165.75;5106287;28;20058;-72
2022/12/01 04:43:40;;;;;;;11.10;7.57;;;;;;;4.63;97.88;103168.50;5112083;28;20035;-71
2022/12/01 04:46:06;;;;;;;12.82;8.23;;;;;;;4.47;97.49;103126.88;5082822;28;20122;-72
2022/12/01 04:48:34;;;;;;;13.38;8.23;;;;;;;4.61;97.66;103154.44;5112863;28;20103;-72
2022/12/01 04:51:00;;;;;;;11.48;7.80;;;;;;;4.59;97.97;103167.84;5105057;28;20091;-72
2022/12/01 04:53:25;;;;;;;12.05;8.57;;;;;;;4.59;98.71;103167.00;5105049;28;20429;-72
2022/12/01 04:55:51;;;;;;;11.73;8.05;;;;;;;4.57;98.82;103167.13;5095039;28;20490;-72
2022/12/01 04:58:16;;;;;;;13.70;8.40;;;;;;;4.63;98.36;103164.03;5100710;28;20050;-72
2022/12/01 05:00:41;;;;;;;11.57;8.40;;;;;;;4.65;97.85;103169.28;5111484;28;20020;-71
2022/12/01 05:03:07;;;;;;;13.95;8.07;;;;;;;4.60;97.86;103171.38;5107262;28;20498;-72
2022/12/01 05:05:32;;;;;;;13.07;8.10;;;;;;;4.60;97.63;103166.03;5103554;28;20160;-72
2022/12/01 05:07:58;;;;;;;13.32;8.43;;;;;;;4.54;98.42;103169.13;5112292;28;20032;-72
2022/12/01 05:10:24;;;;;;;11.48;8.00;;;;;;;4.51;98.57;103170.19;5100555;28;20051;-71
2022/12/01 05:12:51;;;;;;;13.18;8.73;;;;;;;4.46;98.26;103177.63;5108800;28;20024;-73
2022/12/01 05:15:16;;;;;;;13.05;8.52;;;;;;;4.41;98.73;103177.94;5111011;28;20027;-72
2022/12/01 05:17:42;;;;;;;11.88;8.68;;;;;;;4.41;98.92;103177.09;5119788;28;20047;-68
2022/12/01 05:22:58;;;;;;;12.25;8.23;;;;;;;4.13;99.20;103156.69;5111570;28;20402;-71
2022/12/01 05:25:23;;;;;;;11.90;7.85;;;;;;;4.20;98.57;103161.50;5110308;28;20016;-70
2022/12/01 05:27:48;;;;;;;12.15;8.18;;;;;;;4.31;98.94;103174.16;5114710;28;20032;-71
2022/12/01 05:30:14;;;;;;;12.00;8.07;;;;;;;4.32;98.65;103175.00;5103581;28;20032;-72
2022/12/01 05:32:39;;;;;;;12.15;8.70;;;;;;;4.31;98.38;103179.50;5094336;28;20056;-70
2022/12/01 05:35:05;;;;;;;13.27;8.70;;;;;;;4.15;99.18;103179.63;5111735;28;20091;-72
2022/12/01 05:37:33;;;;;;;12.20;8.13;;;;;;;4.14;99.98;103183.25;5109657;28;20031;-71
2022/12/01 05:39:59;;;;;;;12.85;8.52;;;;;;;3.86;100.00;103154.00;5100961;28;20034;-72
2022/12/01 05:42:25;;;;;;;13.85;8.60;;;;;;;3.78;100.00;103148.31;5104835;28;20458;-71
2022/12/01 05:44:50;;;;;;;12.60;8.30;;;;;;;3.99;100.00;103187.75;5096759;28;20113;-71
2022/12/01 05:47:15;;;;;;;12.43;8.43;;;;;;;3.98;100.00;103182.53;5111950;28;20042;-71
2022/12/01 05:49:46;;;;;;;14.60;8.98;;;;;;;3.97;100.00;103191.44;5105454;28;20028;-71
2022/12/01 05:52:12;;;;;;;13.27;8.63;;;;;;;3.92;100.00;103188.22;5116398;28;20774;-71
2022/12/01 05:54:37;;;;;;;12.18;8.57;;;;;;;3.90;100.00;103185.66;5107334;28;20024;-72
2022/12/01 05:57:03;;;;;;;12.40;8.70;;;;;;;3.94;100.00;103195.19;5112426;28;20453;-71
2022/12/01 05:59:28;;;;;;;15.45;9.70;;;;;;;3.90;100.00;103193.63;5113680;28;20082;-71
2022/12/01 06:01:53;;;;;;;16.38;9.40;;;;;;;3.96;100.00;103198.59;5106291;28;20028;-71
2022/12/01 06:04:19;;;;;;;14.30;9.25;;;;;;;3.83;100.00;103170.16;5116934;28;20031;-71
2022/12/01 06:06:44;;;;;;;15.52;9.95;;;;;;;4.01;100.00;103192.97;5108550;28;20126;-71
2022/12/01 06:09:10;;;;;;;16.23;10.23;;;;;;;3.91;100.00;103182.06;5120771;28;20039;-72
2022/12/01 06:11:35;;;;;;;14.07;9.32;;;;;;;3.97;100.00;103196.78;5107087;28;20056;-70
2022/12/01 06:14:01;;;;;;;14.98;9.13;;;;;;;3.78;100.00;103166.94;5117386;28;20032;-70
2022/12/01 06:16:26;;;;;;;15.43;9.82;;;;;;;3.94;99.85;103202.28;5101696;28;20024;-72
2022/12/01 06:18:51;;;;;;;16.00;10.15;;;;;;;3.88;100.00;103203.56;5107278;28;20030;-71
2022/12/01 06:21:17;;;;;;;17.45;10.90;;;;;;;3.88;100.00;103194.72;5109825;28;20036;-71
2022/12/01 06:23:43;;;;;;;19.58;10.90;;;;;;;3.82;100.00;103203.94;5113688;28;20027;-71
2022/12/01 06:26:08;;;;;;;17.27;10.35;;;;;;;3.79;100.00;103198.78;5104446;28;20036;-71
2022/12/01 06:28:33;;;;;;;18.88;11.00;;;;;;;3.79;100.00;103201.47;5115871;28;20035;-71
2022/12/01 06:30:59;;;;;;;19.52;11.35;;;;;;;3.84;100.00;103202.03;5108559;28;20028;-71
2022/12/01 06:33:24;;;;;;;21.30;11.85;;;;;;;3.69;100.00;103201.19;5108561;28;20509;-71
2022/12/01 06:35:57;;;;;;;16.55;10.90;;;;;;;3.73;100.00;103202.69;5116454;28;20055;-71
2022/12/01 06:38:23;;;;;;;21.40;12.55;;;;;;;3.73;100.00;103202.69;5102752;28;20027;-71
2022/12/01 06:40:48;;;;;;;21.88;12.75;;;;;;;3.69;100.00;103205.66;5116592;28;20427;-71
2022/12/01 06:43:13;;;;;;;22.88;13.43;;;;;;;3.71;100.00;103207.28;5112991;28;20046;-69
2022/12/01 06:45:39;;;;;;;26.42;14.30;;;;;;;3.61;100.00;103207.91;5105825;28;20499;-71
2022/12/01 06:48:04;;;;;;;25.77;14.02;;;;;;;3.69;100.00;103209.16;5115337;28;20081;-70
2022/12/01 06:50:30;;;;;;;24.98;13.32;;;;;;;3.67;100.00;103213.72;5101795;28;20028;-70
2022/12/01 06:52:55;;;;;;;26.48;15.00;;;;;;;3.57;100.00;103217.91;5102036;28;20028;-70
2022/12/01 06:55:20;;;;;;;25.60;15.32;;;;;;;3.55;100.00;103205.66;5111395;28;20446;-70
2022/12/01 06:57:46;;;;;;;27.88;15.07;;;;;;;3.64;100.00;103213.94;5104573;28;20058;-70
2022/12/01 07:00:12;;;;;;;32.35;15.95;;;;;;;3.52;100.00;103218.19;5116872;28;20044;-69
2022/12/01 07:02:38;;;;;;;24.77;14.30;;;;;;;3.66;100.00;103222.66;5107705;28;20034;-70
2022/12/01 07:05:03;;;;;;;27.80;14.77;;;;;;;3.62;100.00;103225.63;5110402;28;20551;-69
2022/12/01 07:07:29;;;;;;;25.80;14.77;;;;;;;3.52;100.00;103204.03;5113575;28;20043;-70
2022/12/01 07:09:54;;;;;;;26.50;14.88;;;;;;;3.64;100.00;103221.03;5104837;28;20036;-71
2022/12/01 07:12:19;;;;;;;27.55;14.95;;;;;;;3.63;100.00;103228.19;5116950;28;20040;-71
2022/12/01 07:14:45;;;;;;;29.17;15.52;;;;;;;3.62;100.00;103228.28;5106658;28;20091;-70
2022/12/01 07:17:10;;;;;;;28.73;15.23;;;;;;;3.66;100.00;103221.81;5111946;28;20020;-70
2022/12/01 07:19:35;;;;;;;25.05;14.25;;;;;;;3.64;100.00;103231.69;5114499;28;20050;-69
2022/12/01 07:22:01;;;;;;;27.35;14.80;;;;;;;3.65;100.00;103226.28;5104060;28;20372;-72
2022/12/01 07:24:26;;;;;;;25.70;14.23;;;;;;;3.68;100.00;103228.75;5115881;28;20547;-71
2022/12/01 07:26:52;;;;;;;28.17;14.07;;;;;;;3.70;100.00;103228.66;5097151;28;20087;-71
2022/12/01 07:29:17;;;;;;;26.35;14.18;;;;;;;3.36;100.00;103198.78;5110577;28;20065;-69
2022/12/01 07:31:42;;;;;;;25.58;15.00;;;;;;;3.58;100.00;103214.31;5104136;28;20055;-68
2022/12/01 07:34:12;;;;;;;24.67;13.90;;;;;;;3.70;99.63;103218.00;5097067;28;20028;-69
2022/12/01 07:36:37;;;;;;;26.92;14.18;;;;;;;3.53;99.36;103200.41;5105048;28;20471;-71
2022/12/01 07:39:07;;;;;;;24.92;14.13;;;;;;;3.65;99.21;103231.59;5111624;28;20105;-71
2022/12/01 07:41:34;;;;;;;26.13;14.15;;;;;;;3.63;99.81;103229.97;5102313;28;20458;-75
2022/12/01 07:43:59;;;;;;;23.00;13.85;;;;;;;3.63;98.92;103229.97;5101059;28;20032;-71
2022/12/01 07:46:26;;;;;;;29.60;14.10;;;;;;;3.61;99.16;103222.09;5116760;28;20501;-71
2022/12/01 07:48:53;;;;;;;25.50;14.70;;;;;;;3.58;99.18;103227.63;5105671;28;20027;-72
2022/12/01 07:51:20;;;;;;;23.00;13.15;;;;;;;3.58;99.55;103229.44;5107728;28;20023;-71
2022/12/01 07:53:48;;;;;;;21.15;12.82;;;;;;;3.45;99.84;103218.66;5114130;28;20111;-71
2022/12/01 07:56:14;;;;;;;24.88;13.73;;;;;;;3.55;99.28;103237.59;5102612;28;20028;-71
2022/12/01 07:58:39;;;;;;;23.05;13.05;;;;;;;3.51;100.00;103234.28;5113021;28;20044;-69
2022/12/01 08:01:11;;;;;;;23.98;13.50;;;;;;;3.57;99.95;103236.53;5108175;28;20126;-69
2022/12/01 08:03:37;;;;;;;21.38;13.50;;;;;;;3.63;99.60;103237.97;5105038;28;20027;-70
2022/12/01 08:06:03;;;;;;;23.48;14.15;;;;;;;3.56;98.96;103228.66;5123182;28;20062;-73
2022/12/01 08:08:31;;;;;;;26.23;14.05;;;;;;;3.62;99.03;103231.78;5117543;28;20039;-75
2022/12/01 08:11:05;;;;;;;23.35;13.77;;;;;;;3.68;99.11;103250.06;5127805;28;20046;-80
2022/12/01 08:13:31;;;;;;;;;;;;;;;3.74;98.93;103255.00;5113271;28;20103;-71
2022/12/01 08:15:56;;;;;;;23.38;12.98;;;;;;;3.50;98.84;103211.25;5104441;28;19950;-71
2022/12/01 08:18:42;;;;;;;22.95;13.32;;;;;;;3.78;98.42;103255.69;5118080;28;20463;-71
2022/12/01 08:21:11;;;;;;;24.45;12.93;;;;;;;3.67;98.43;103237.69;5069570;28;20058;-75
2022/12/01 08:23:37;;;;;;;23.15;13.65;;;;;;;3.74;98.92;103255.00;5084201;28;20123;-71
2022/12/01 08:26:05;;;;;;;23.48;14.10;;;;;;;3.76;98.11;103250.44;5077126;28;20150;-72
2022/12/01 08:28:31;;;;;;;23.55;13.85;;;;;;;3.76;98.25;103255.75;5064287;28;20372;-70
2022/12/01 08:30:56;;;;;;;24.65;14.05;;;;;;;3.79;98.48;103259.19;5086674;28;20036;-71
2022/12/01 08:33:22;;;;;;;22.67;13.23;;;;;;;3.79;97.80;103259.19;5089667;28;20494;-71
2022/12/01 08:35:47;;;;;;;21.95;13.23;;;;;;;3.76;97.53;103265.56;5080816;28;20052;-72
2022/12/01 08:38:14;;;;;;;23.67;13.70;;;;;;;3.78;97.50;103265.47;5093993;28;20490;-71
2022/12/01 08:40:40;;;;;;;23.63;13.30;;;;;;;3.58;98.04;103240.94;5065090;28;20040;-71
2022/12/01 08:43:05;;;;;;;23.10;13.75;;;;;;;3.85;97.38;103266.81;5087335;28;20031;-70
2022/12/01 08:45:30;;;;;;;23.52;13.60;;;;;;;3.74;97.64;103244.38;5087915;28;20046;-70
2022/12/01 08:47:57;;;;;;;21.33;12.98;;;;;;;3.89;98.23;103273.66;5030061;28;20090;-70
2022/12/01 08:50:27;;;;;;;22.67;13.07;;;;;;;3.94;97.69;103279.53;5075778;28;20040;-70
2022/12/01 08:52:52;;;;;;;28.05;14.77;;;;;;;3.89;98.16;103282.50;5101343;28;20517;-70
2022/12/01 08:55:19;;;;;;;24.73;14.48;;;;;;;3.90;98.14;103275.34;5089414;28;20036;-72
2022/12/01 08:57:44;;;;;;;25.13;14.48;;;;;;;3.86;98.38;103263.19;5111984;28;20051;-70
2022/12/01 09:00:11;;;;;;;23.63;13.93;;;;;;;3.96;97.84;103275.84;5101694;28;20032;-70
2022/12/01 09:02:36;;;;;;;24.48;13.65;;;;;;;3.97;97.90;103276.69;5096354;28;20379;-71
2022/12/01 09:05:02;;;;;;;24.55;13.85;;;;;;;4.01;97.57;103278.22;5107579;28;20026;-70
2022/12/01 09:07:28;;;;;;;23.20;13.35;;;;;;;3.99;97.44;103248.16;5088872;28;20039;-73
2022/12/01 09:09:54;;;;;;;21.60;13.52;;;;;;;4.13;97.40;103279.25;5117660;28;20027;-73
2022/12/01 09:12:19;;;;;;;21.67;13.25;;;;;;;4.14;97.24;103278.28;5106160;28;20038;-72
2022/12/01 09:14:47;;;;;;;24.27;14.07;;;;;;;4.21;97.75;103280.50;5099611;28;20044;-71
2022/12/01 09:17:13;;;;;;;22.00;13.20;;;;;;;4.23;96.85;103278.56;5108691;28;20039;-73
2022/12/01 09:19:39;;;;;;;26.20;14.50;;;;;;;4.24;97.19;103279.47;5108963;28;20028;-71
2022/12/01 09:22:04;;;;;;;19.73;12.90;;;;;;;4.27;97.18;103278.38;5118355;28;20081;-71
2022/12/01 09:24:29;;;;;;;23.88;13.65;;;;;;;4.15;96.87;103251.56;5104811;28;20054;-70
2022/12/01 09:26:56;;;;;;;21.42;13.73;;;;;;;4.24;97.71;103287.44;5113847;28;20085;-70
2022/12/01 09:29:24;;;;;;;21.73;13.68;;;;;;;4.28;97.44;103278.31;5112544;28;20042;-71
2022/12/01 09:31:50;;;;;;;25.08;14.10;;;;;;;4.34;97.57;103287.69;5107894;28;20055;-71
2022/12/01 09:34:18;;;;;;;23.08;13.93;;;;;;;4.39;96.99;103293.59;5117998;28;20038;-71
2022/12/01 09:36:44;;;;;;;22.98;13.15;;;;;;;4.21;97.42;103258.34;5107338;28;20023;-71
2022/12/01 09:39:15;;;;;;;21.05;12.93;;;;;;;3.86;98.35;103200.13;5112879;27;20381;-73
2022/12/01 09:41:40;;;;;;;23.73;13.30;;;;;;;4.35;98.54;103282.28;5108491;28;20024;-69
2022/12/01 09:44:12;;;;;;;20.40;12.95;;;;;;;4.36;99.22;103286.66;5104609;28;20038;-70
2022/12/01 09:46:43;;;;;;;19.58;12.63;;;;;;;4.31;98.53;103258.59;5117847;28;20085;-71
2022/12/01 09:49:37;;;;;;;18.63;12.23;;;;;;;4.51;98.72;103284.84;5110465;28;20039;-72
2022/12/01 09:52:02;;;;;;;19.20;12.35;;;;;;;4.42;99.14;103274.75;5042589;28;20029;-72
2022/12/01 09:54:28;;;;;;;18.17;11.90;;;;;;;4.48;100.00;103279.69;5059134;28;20051;-72
2022/12/01 09:56:55;;;;;;;17.08;11.35;;;;;;;4.44;99.46;103276.38;5049374;28;20055;-72
2022/12/01 09:59:23;;;;;;;18.75;12.18;;;;;;;4.35;100.00;103276.97;5050200;28;20053;-72
2022/12/01 10:02:02;;;;;;;17.58;11.85;;;;;;;4.48;100.00;103261.03;5071175;28;20044;-72
2022/12/01 10:04:37;;;;;;;16.73;11.48;;;;;;;4.43;99.88;103249.78;5042027;28;20082;-72
2022/12/01 10:07:26;;;;;;;21.05;11.02;;;;;;;4.50;100.00;103275.09;5069395;28;20068;-72
2022/12/01 10:09:54;;;;;;;16.13;11.23;;;;;;;4.51;100.00;103273.31;5054716;28;20125;-72
2022/12/01 10:12:26;;;;;;;17.33;11.15;;;;;;;4.35;100.00;103233.47;5042867;28;20037;-72
2022/12/01 10:14:57;;;;;;;18.05;10.93;;;;;;;4.65;100.00;103274.13;5054352;28;20029;-72
2022/12/01 10:17:55;;;;;;;18.92;11.88;;;;;;;4.74;100.00;103275.34;5050988;28;20044;-72
2022/12/01 10:20:27;;;;;;;17.55;11.23;;;;;;;4.65;100.00;103263.47;5033696;28;20045;-72
2022/12/01 10:22:58;;;;;;;17.02;11.77;;;;;;;4.74;100.00;103272.69;5094001;28;20042;-72
2022/12/01 10:25:28;;;;;;;19.30;11.68;;;;;;;4.66;100.00;103270.50;5112276;28;20127;-72
2022/12/01 10:27:54;;;;;;;16.30;11.38;;;;;;;4.69;100.00;103264.13;5106208;28;20024;-72
2022/12/01 10:30:22;;;;;;;18.50;11.68;;;;;;;4.68;100.00;103271.25;5118225;28;20597;-72
2022/12/01 10:32:57;;;;;;;20.35;12.23;;;;;;;4.78;100.00;103265.34;5105826;28;20032;-72
2022/12/01 10:35:27;;;;;;;20.83;12.63;;;;;;;5.04;100.00;103264.47;5108429;28;20031;-71
2022/12/01 10:37:56;;;;;;;17.38;11.43;;;;;;;5.15;100.00;103267.25;5116295;28;20110;-72
2022/12/01 10:40:23;;;;;;;17.65;11.88;;;;;;;5.14;100.00;103262.88;5102894;28;20490;-72
2022/12/01 10:42:49;;;;;;;16.58;11.88;;;;;;;5.27;100.00;103264.72;5114367;28;20125;-72
2022/12/01 10:45:39;;;;;;;16.80;11.77;;;;;;;5.21;100.00;103254.47;5109852;28;20039;-72
2022/12/01 10:48:19;;;;;;;14.90;11.07;;;;;;;5.23;100.00;103256.09;5098008;28;20047;-72
2022/12/01 10:50:49;;;;;;;17.17;11.43;;;;;;;5.02;100.00;103236.16;5067107;28;20028;-72
2022/12/01 10:53:35;;;;;;;18.98;11.77;;;;;;;5.23;100.00;103255.19;5082198;28;20040;-73
2022/12/01 10:56:15;;;;;;;15.80;11.23;;;;;;;5.36;99.66;103256.97;5082052;28;20031;-72
2022/12/01 10:58:56;;;;;;;16.35;11.00;;;;;;;5.11;99.52;103225.72;5081451;28;20339;-73
2022/12/01 11:01:22;;;;;;;16.02;11.82;;;;;;;5.29;99.98;103252.13;5098761;28;20091;-72
2022/12/01 11:03:56;;;;;;;16.85;11.23;;;;;;;5.35;100.00;103247.22;5099219;28;20039;-72
2022/12/01 11:06:42;;;;;;;15.95;11.07;;;;;;;5.10;100.00;103208.00;5098399;28;20036;-72
2022/12/01 11:09:19;;;;;;;15.82;10.15;;;;;;;5.28;100.00;103239.75;5098864;28;20052;-72
2022/12/01 11:11:45;;;;;;;16.70;10.25;;;;;;;5.45;100.00;103230.56;5098262;28;20027;-73
2022/12/01 11:14:20;;;;;;;13.63;9.45;;;;;;;5.35;100.00;103200.97;5096168;28;20050;-71
2022/12/01 11:16:47;;;;;;;12.38;9.77;;;;;;;5.13;100.00;103189.13;5093098;28;20044;-77
2022/12/01 11:19:12;;;;;;;13.18;9.63;;;;;;;5.26;100.00;103214.94;5120719;27;20047;-73
2022/12/01 11:21:49;;;;;;;12.60;9.30;;;;;;;5.11;100.00;103182.16;5122302;28;20012;-74
2022/12/01 11:24:31;;;;;;;12.68;9.48;;;;;;;5.35;100.00;103206.31;5113959;28;20044;-71
2022/12/01 11:26:58;;;;;;;12.88;9.27;;;;;;;5.49;100.00;103205.34;5116920;28;20028;-76
2022/12/01 11:29:26;;;;;;;10.40;8.13;;;;;;;5.35;100.00;103201.81;5094023;28;20034;-71
2022/12/01 11:31:52;;;;;;;11.98;8.80;;;;;;;5.10;100.00;103157.31;5106026;28;20038;-70
2022/12/01 11:34:30;;;;;;;10.80;8.18;;;;;;;5.40;100.00;103199.72;5099184;28;20040;-71
2022/12/01 11:37:17;;;;;;;10.50;7.95;;;;;;;5.48;100.00;103209.00;5104501;28;20023;-70
2022/12/01 11:39:47;;;;;;;12.02;8.23;;;;;;;5.45;100.00;103212.72;5109613;28;20036;-71